Time;durP1;ratioP1;P1;durP2;ratioP2;P2;SDS_P1;SDS_P2;PMS_P1;PMS_P2;Temp;Humidity;BMP_temperature;BMP_pressure;BME280_temperature;BME280_humidity;BME280_pressure;Samples;Min_cycle;Max_cycle;Signal;HPM_P1;HPM_P2
2022/11/04 00:00:24;;;;;;;97.13;41.55;;;;;;;;;;1033990;28;20022;-75
2022/11/04 00:01:02;;;;;;;106.03;44.10;;;;;;;;;;1034031;28;20034;-74
2022/11/04 00:01:34;;;;;;;87.13;44.13;;;;;;;;;;1033678;28;20062;-75
2022/11/04 00:02:05;;;;;;;96.53;42.88;;;;;;;;;;1033289;28;20117;-76
2022/11/04 00:02:35;;;;;;;119.10;47.60;;;;;;;;;;1029896;28;20034;-76
2022/11/04 00:03:06;;;;;;;96.20;41.75;;;;;;;;;;1026769;29;20427;-75
2022/11/04 00:03:37;;;;;;;94.10;44.03;;;;;;;;;;1026125;29;20042;-75
2022/11/04 00:04:10;;;;;;;97.75;41.72;;;;;;;;;;1025913;29;20027;-75
2022/11/04 00:04:41;;;;;;;95.53;40.72;;;;;;;;;;1026855;28;20020;-76
2022/11/04 00:05:12;;;;;;;76.68;37.53;;;;;;;;;;1030910;28;20030;-75
2022/11/04 00:05:43;;;;;;;92.70;40.13;;;;;;;;;;1034080;28;20035;-75
2022/11/04 00:06:14;;;;;;;83.07;40.20;;;;;;;;;;1034224;28;20033;-75
2022/11/04 00:06:45;;;;;;;91.25;40.20;;;;;;;;;;1030107;28;20039;-75
2022/11/04 00:08:23;;;;;;;73.03;36.63;;;;;;;;;;1030237;28;20027;-75
2022/11/04 00:08:55;;;;;;;96.90;40.00;;;;;;;;;;1035078;28;20450;-77
2022/11/04 00:09:28;;;;;;;74.32;37.00;;;;;;;;;;1035634;28;20062;-77
2022/11/04 00:09:59;;;;;;;79.78;36.30;;;;;;;;;;1034471;28;20394;-74
2022/11/04 00:12:24;;;;;;;75.32;34.25;;;;;;;;;;1035008;28;20086;-74
2022/11/04 00:12:54;;;;;;;74.07;34.83;;;;;;;;;;1034117;28;20141;-75
2022/11/04 00:13:28;;;;;;;88.72;37.60;;;;;;;;;;1034389;28;20032;-74
2022/11/04 00:13:58;;;;;;;105.10;39.50;;;;;;;;;;1033949;28;20030;-76
2022/11/04 00:14:29;;;;;;;83.80;37.47;;;;;;;;;;1029847;28;20042;-77
2022/11/04 00:17:18;;;;;;;90.55;37.97;;;;;;;;;;1026074;29;20031;-76
2022/11/04 00:17:29;;;;;;;84.75;35.35;;;;;;;;;;1034148;28;20026;-75
2022/11/04 00:18:00;;;;;;;80.75;36.95;;;;;;;;;;1034656;28;20034;-75
2022/11/04 00:18:31;;;;;;;79.40;34.88;;;;;;;;;;1034160;28;20109;-74
2022/11/04 00:19:03;;;;;;;81.97;34.85;;;;;;;;;;1034072;28;20097;-74
2022/11/04 00:28:42;;;;;;;63.97;26.60;;;;;;;;;;1035257;28;20034;-75
2022/11/04 00:29:15;;;;;;;65.82;31.00;;;;;;;;;;1035502;28;20050;-74
2022/11/04 00:29:46;;;;;;;62.00;29.25;;;;;;;;;;1034678;28;20429;-74
2022/11/04 00:30:17;;;;;;;64.50;30.33;;;;;;;;;;1035099;28;20026;-75
2022/11/04 00:30:51;;;;;;;73.68;28.05;;;;;;;;;;1034555;28;20477;-75
2022/11/04 00:33:45;;;;;;;61.72;28.63;;;;;;;;;;1032056;28;20031;-75
2022/11/04 00:33:58;;;;;;;83.68;30.25;;;;;;;;;;1028630;28;20027;-75
2022/11/04 00:34:29;;;;;;;69.22;29.00;;;;;;;;;;1033657;28;20034;-75
2022/11/04 00:34:59;;;;;;;55.80;28.33;;;;;;;;;;1033784;28;20023;-74
2022/11/04 00:35:30;;;;;;;66.00;30.40;;;;;;;;;;1033577;28;20142;-76
2022/11/04 00:36:01;;;;;;;70.80;31.30;;;;;;;;;;1033845;28;20073;-74
2022/11/04 00:36:32;;;;;;;71.13;30.15;;;;;;;;;;1033979;28;20078;-74
2022/11/04 00:37:03;;;;;;;79.13;30.02;;;;;;;;;;1034668;28;20398;-74
2022/11/04 00:37:37;;;;;;;57.47;24.85;;;;;;;;;;1029828;28;20097;-75
2022/11/04 00:38:08;;;;;;;58.33;25.92;;;;;;;;;;1026852;29;20030;-77
2022/11/04 00:38:39;;;;;;;64.55;28.80;;;;;;;;;;1026012;28;20034;-75
2022/11/04 00:39:11;;;;;;;70.18;29.25;;;;;;;;;;1027247;28;20027;-76
2022/11/04 00:39:43;;;;;;;65.10;29.92;;;;;;;;;;1029677;28;20047;-75
2022/11/04 00:40:14;;;;;;;62.97;31.50;;;;;;;;;;1030149;28;20090;-76
2022/11/04 00:40:45;;;;;;;57.53;29.17;;;;;;;;;;1031474;28;20026;-76
2022/11/04 00:41:26;;;;;;;63.88;27.95;;;;;;;;;;1033569;28;20022;-75
2022/11/04 00:41:58;;;;;;;62.92;28.15;;;;;;;;;;1032632;28;20034;-76
2022/11/04 00:42:28;;;;;;;67.90;30.98;;;;;;;;;;1031097;28;20022;-76
2022/11/04 00:42:59;;;;;;;59.90;30.10;;;;;;;;;;1036297;28;20026;-75
2022/11/04 00:43:30;;;;;;;56.42;27.50;;;;;;;;;;1033724;28;20058;-75
2022/11/04 00:44:02;;;;;;;71.82;28.25;;;;;;;;;;1029885;28;20043;-76
2022/11/04 00:44:33;;;;;;;66.20;28.33;;;;;;;;;;1033384;28;20038;-76
2022/11/04 00:45:06;;;;;;;75.47;29.38;;;;;;;;;;1033505;28;20089;-73
2022/11/04 00:45:37;;;;;;;58.15;26.52;;;;;;;;;;1034062;28;20037;-74
2022/11/04 00:46:08;;;;;;;71.43;29.98;;;;;;;;;;1038094;28;20450;-75
2022/11/04 00:46:39;;;;;;;86.18;31.88;;;;;;;;;;1032519;28;20035;-74
2022/11/04 00:47:10;;;;;;;63.25;29.48;;;;;;;;;;1033197;28;20522;-75
2022/11/04 00:47:41;;;;;;;73.25;27.27;;;;;;;;;;1034108;28;20022;-75
2022/11/04 00:48:12;;;;;;;53.35;26.88;;;;;;;;;;1033690;28;20030;-75
2022/11/04 00:48:43;;;;;;;61.53;29.95;;;;;;;;;;1037007;28;20084;-75
2022/11/04 00:49:13;;;;;;;67.20;27.67;;;;;;;;;;1033093;28;20053;-76
2022/11/04 00:49:44;;;;;;;55.25;28.42;;;;;;;;;;1029776;28;20168;-75
2022/11/04 00:50:15;;;;;;;51.97;25.25;;;;;;;;;;1029755;28;20051;-76
2022/11/04 00:50:46;;;;;;;72.82;28.88;;;;;;;;;;1033824;28;20054;-75
2022/11/04 00:51:20;;;;;;;52.35;25.80;;;;;;;;;;1034133;28;20037;-75
2022/11/04 00:51:50;;;;;;;62.92;27.15;;;;;;;;;;1033794;28;20041;-75
2022/11/04 00:52:22;;;;;;;51.45;22.70;;;;;;;;;;1034307;28;20029;-75
2022/11/04 00:52:59;;;;;;;61.50;25.85;;;;;;;;;;1033201;28;20023;-76
2022/11/04 00:53:30;;;;;;;60.90;26.88;;;;;;;;;;1025373;29;20050;-76
2022/11/04 00:54:01;;;;;;;60.97;29.48;;;;;;;;;;1026000;29;20035;-75
2022/11/04 00:54:32;;;;;;;52.60;24.77;;;;;;;;;;1027019;28;20030;-75
2022/11/04 00:55:03;;;;;;;67.13;24.40;;;;;;;;;;1030034;28;20030;-75
2022/11/04 00:55:34;;;;;;;62.58;25.42;;;;;;;;;;1034237;28;20387;-74
2022/11/04 00:56:05;;;;;;;50.25;25.70;;;;;;;;;;1033721;28;20022;-74
2022/11/04 00:56:37;;;;;;;54.60;27.38;;;;;;;;;;1033417;28;20030;-74
2022/11/04 00:57:08;;;;;;;65.05;22.98;;;;;;;;;;1033705;28;20029;-75
2022/11/04 00:57:39;;;;;;;64.45;27.02;;;;;;;;;;1033833;28;20034;-74
2022/11/04 00:58:10;;;;;;;50.72;24.88;;;;;;;;;;1034103;28;20073;-76
2022/11/04 00:58:42;;;;;;;55.53;24.13;;;;;;;;;;1033702;28;20088;-74
2022/11/04 00:59:15;;;;;;;61.85;26.35;;;;;;;;;;1030257;28;20095;-77
2022/11/04 00:59:46;;;;;;;59.55;26.70;;;;;;;;;;1029943;28;20131;-75
2022/11/04 01:00:18;;;;;;;55.22;24.80;;;;;;;;;;1028915;28;20029;-75
2022/11/04 01:00:49;;;;;;;55.72;26.10;;;;;;;;;;1025505;29;20559;-75
2022/11/04 01:01:20;;;;;;;57.58;26.48;;;;;;;;;;1029269;28;20027;-74
2022/11/04 01:01:51;;;;;;;50.03;26.98;;;;;;;;;;1029718;28;20037;-78
2022/11/04 01:02:22;;;;;;;53.13;24.00;;;;;;;;;;1029577;28;20054;-74
2022/11/04 01:02:54;;;;;;;53.60;23.58;;;;;;;;;;1025854;29;20015;-74
2022/11/04 01:03:25;;;;;;;53.75;26.40;;;;;;;;;;1026182;28;20031;-77
2022/11/04 01:03:57;;;;;;;66.18;25.17;;;;;;;;;;1029464;28;20030;-76
2022/11/04 01:04:28;;;;;;;53.15;25.35;;;;;;;;;;1030393;28;20058;-75
2022/11/04 01:04:59;;;;;;;41.13;23.02;;;;;;;;;;1026614;29;20097;-75
2022/11/04 01:05:30;;;;;;;48.42;23.35;;;;;;;;;;1022109;29;20027;-75
2022/11/04 01:06:05;;;;;;;68.28;26.70;;;;;;;;;;1026199;29;20075;-75
2022/11/04 01:06:36;;;;;;;52.60;24.67;;;;;;;;;;1022562;29;20023;-75
2022/11/04 01:07:06;;;;;;;47.50;22.80;;;;;;;;;;1026320;28;20130;-75
2022/11/04 01:07:37;;;;;;;65.88;25.33;;;;;;;;;;1029557;28;20110;-75
2022/11/04 01:08:10;;;;;;;54.72;22.27;;;;;;;;;;1029869;28;20035;-75
2022/11/04 01:08:46;;;;;;;69.78;26.38;;;;;;;;;;1033480;28;20207;-75
2022/11/04 01:09:18;;;;;;;64.13;25.58;;;;;;;;;;1032907;28;20405;-75
2022/11/04 01:09:49;;;;;;;51.13;25.75;;;;;;;;;;1026146;29;20446;-76
2022/11/04 01:10:19;;;;;;;63.45;23.45;;;;;;;;;;1025607;28;20371;-74
2022/11/04 01:10:51;;;;;;;46.50;21.38;;;;;;;;;;1029226;28;20417;-75
2022/11/04 01:11:22;;;;;;;44.85;24.02;;;;;;;;;;1029945;28;20121;-75
2022/11/04 01:11:53;;;;;;;57.28;24.45;;;;;;;;;;1034090;28;20860;-75
2022/11/04 01:12:24;;;;;;;56.60;23.75;;;;;;;;;;1037498;28;20057;-76
2022/11/04 01:12:55;;;;;;;48.00;22.70;;;;;;;;;;1034094;28;20053;-75
2022/11/04 01:13:26;;;;;;;44.53;21.60;;;;;;;;;;1029715;28;20097;-75
2022/11/04 01:13:57;;;;;;;70.68;25.88;;;;;;;;;;1029270;28;20010;-74
2022/11/04 01:14:27;;;;;;;55.65;23.85;;;;;;;;;;1025992;29;20090;-76
2022/11/04 01:14:59;;;;;;;55.47;22.90;;;;;;;;;;1025806;28;20074;-75
2022/11/04 01:15:30;;;;;;;49.60;25.30;;;;;;;;;;1030079;28;20037;-74
2022/11/04 01:16:02;;;;;;;49.30;21.42;;;;;;;;;;1033397;28;20104;-75
2022/11/04 01:16:32;;;;;;;51.28;23.25;;;;;;;;;;1033750;28;20022;-75
2022/11/04 01:17:04;;;;;;;55.67;23.73;;;;;;;;;;1033441;28;20010;-75
2022/11/04 01:17:35;;;;;;;56.30;23.13;;;;;;;;;;1032738;28;20057;-76
2022/11/04 01:18:07;;;;;;;57.47;23.63;;;;;;;;;;1034140;28;20010;-76
2022/11/04 01:18:40;;;;;;;44.47;21.08;;;;;;;;;;1032533;28;20022;-74
2022/11/04 01:19:11;;;;;;;53.05;23.33;;;;;;;;;;1029775;28;20025;-76
2022/11/04 01:19:41;;;;;;;62.17;24.42;;;;;;;;;;1025260;28;20031;-75
2022/11/04 01:20:12;;;;;;;58.05;25.05;;;;;;;;;;1024471;29;20023;-74
2022/11/04 01:20:43;;;;;;;58.33;25.75;;;;;;;;;;1028895;28;20034;-75
2022/11/04 01:21:15;;;;;;;53.00;21.98;;;;;;;;;;1022396;28;20019;-74
2022/11/04 01:21:48;;;;;;;57.33;24.65;;;;;;;;;;1027129;28;20041;-75
2022/11/04 01:22:20;;;;;;;77.38;25.95;;;;;;;;;;1023693;28;20042;-76
2022/11/04 01:22:50;;;;;;;64.70;24.92;;;;;;;;;;1021421;29;20038;-78
2022/11/04 01:23:22;;;;;;;59.78;22.83;;;;;;;;;;1022047;29;20019;-76
2022/11/04 01:23:53;;;;;;;46.05;22.05;;;;;;;;;;1021055;28;20579;-75
2022/11/04 01:24:26;;;;;;;57.90;23.40;;;;;;;;;;1024330;29;20027;-77
2022/11/04 01:24:57;;;;;;;49.75;20.42;;;;;;;;;;1025382;28;20026;-76
2022/11/04 01:25:27;;;;;;;55.10;21.55;;;;;;;;;;1023645;28;20277;-75
2022/11/04 01:25:58;;;;;;;52.88;21.95;;;;;;;;;;1027379;28;20033;-75
2022/11/04 01:26:29;;;;;;;50.28;24.27;;;;;;;;;;1020698;29;20605;-77
2022/11/04 01:27:00;;;;;;;50.63;21.75;;;;;;;;;;1020388;29;20039;-77
2022/11/04 01:27:31;;;;;;;48.70;22.95;;;;;;;;;;1023607;29;20019;-75
2022/11/04 01:28:02;;;;;;;64.72;27.50;;;;;;;;;;1022129;28;20499;-76
2022/11/04 01:28:32;;;;;;;59.08;22.50;;;;;;;;;;1027590;28;20027;-79
2022/11/04 01:29:03;;;;;;;54.58;21.75;;;;;;;;;;1031077;28;20201;-78
2022/11/04 01:29:34;;;;;;;67.47;25.33;;;;;;;;;;1031174;28;20507;-77
2022/11/04 01:30:05;;;;;;;59.45;26.05;;;;;;;;;;1025140;28;20410;-76
2022/11/04 01:30:38;;;;;;;63.60;26.27;;;;;;;;;;1027062;28;20078;-76
2022/11/04 01:31:12;;;;;;;58.10;27.02;;;;;;;;;;1028514;28;20676;-76
2022/11/04 01:31:43;;;;;;;63.10;23.50;;;;;;;;;;1031784;28;20080;-75
2022/11/04 01:32:13;;;;;;;41.25;19.67;;;;;;;;;;1032377;28;20031;-76
2022/11/04 01:32:44;;;;;;;48.42;21.45;;;;;;;;;;1031684;28;20179;-78
2022/11/04 01:33:20;;;;;;;55.80;20.77;;;;;;;;;;1031715;28;20030;-78
2022/11/04 01:33:58;;;;;;;52.58;24.58;;;;;;;;;;1032682;28;20061;-75
2022/11/04 01:34:29;;;;;;;54.55;22.40;;;;;;;;;;1031361;28;20656;-76
2022/11/04 01:35:01;;;;;;;52.65;22.75;;;;;;;;;;1032085;28;20183;-74
2022/11/04 01:35:32;;;;;;;53.85;26.50;;;;;;;;;;1031439;28;20026;-76
2022/11/04 01:36:05;;;;;;;50.65;24.20;;;;;;;;;;1031662;28;20031;-76
2022/11/04 01:36:36;;;;;;;61.20;25.13;;;;;;;;;;1032196;28;20033;-75
2022/11/04 01:37:07;;;;;;;55.28;21.48;;;;;;;;;;1031207;28;20033;-77
2022/11/04 01:37:38;;;;;;;52.17;22.77;;;;;;;;;;1026097;28;20117;-76
2022/11/04 01:38:09;;;;;;;59.72;21.13;;;;;;;;;;1022709;29;20115;-76
2022/11/04 01:38:40;;;;;;;56.47;21.55;;;;;;;;;;1023615;28;20517;-76
2022/11/04 01:39:12;;;;;;;46.17;22.15;;;;;;;;;;1028285;28;20062;-76
2022/11/04 01:39:43;;;;;;;38.17;20.67;;;;;;;;;;1023231;28;20133;-76
2022/11/04 01:40:16;;;;;;;51.28;21.02;;;;;;;;;;1028502;28;20027;-75
2022/11/04 01:40:47;;;;;;;51.17;19.98;;;;;;;;;;1027704;28;20030;-77
2022/11/04 01:41:28;;;;;;;60.20;23.52;;;;;;;;;;1025338;28;20565;-76
2022/11/04 01:41:59;;;;;;;57.05;20.42;;;;;;;;;;1029494;28;20026;-77
2022/11/04 01:42:29;;;;;;;54.30;23.35;;;;;;;;;;1033629;28;20030;-77
2022/11/04 01:43:02;;;;;;;45.88;22.38;;;;;;;;;;1034270;28;20041;-76
2022/11/04 01:43:57;;;;;;;40.65;19.15;;;;;;;;;;1031613;28;20031;-78
2022/11/04 01:44:46;;;;;;;47.72;21.95;;;;;;;;;;1032036;28;20057;-77
2022/11/04 01:45:18;;;;;;;49.92;21.48;;;;;;;;;;1026219;28;20035;-76
2022/11/04 01:45:51;;;;;;;51.25;18.92;;;;;;;;;;1026767;28;20783;-76
2022/11/04 01:46:28;;;;;;;59.38;24.77;;;;;;;;;;1022764;29;20406;-78
2022/11/04 01:47:02;;;;;;;54.88;22.75;;;;;;;;;;1020251;28;20043;-76
2022/11/04 01:47:41;;;;;;;61.72;24.45;;;;;;;;;;1023565;28;20444;-75
2022/11/04 01:48:19;;;;;;;45.00;21.77;;;;;;;;;;1028790;28;20117;-76
2022/11/04 01:48:51;;;;;;;54.20;21.40;;;;;;;;;;1027272;28;20056;-77
2022/11/04 01:49:28;;;;;;;46.30;22.83;;;;;;;;;;1025358;28;20019;-77
2022/11/04 01:50:05;;;;;;;50.60;23.25;;;;;;;;;;1021982;29;20125;-76
2022/11/04 01:50:38;;;;;;;54.08;21.30;;;;;;;;;;1022673;29;20023;-76
2022/11/04 01:51:09;;;;;;;57.67;23.23;;;;;;;;;;1025858;28;20092;-76
2022/11/04 01:51:41;;;;;;;44.22;21.27;;;;;;;;;;1027831;28;20034;-78
2022/11/04 01:52:15;;;;;;;49.13;19.80;;;;;;;;;;1026310;28;20027;-76
2022/11/04 01:52:51;;;;;;;49.13;22.02;;;;;;;;;;1023297;29;20110;-77
2022/11/04 01:53:32;;;;;;;42.38;18.63;;;;;;;;;;1021483;29;20167;-76
2022/11/04 01:54:03;;;;;;;48.25;20.95;;;;;;;;;;1021349;29;20079;-77
2022/11/04 01:54:36;;;;;;;48.50;20.20;;;;;;;;;;1022882;29;20019;-77
2022/11/04 01:55:10;;;;;;;46.13;20.85;;;;;;;;;;1023604;29;20067;-76
2022/11/04 01:55:45;;;;;;;36.17;18.77;;;;;;;;;;1023606;29;20034;-76
2022/11/04 01:56:19;;;;;;;50.80;23.55;;;;;;;;;;1026633;28;20169;-76
2022/11/04 01:56:50;;;;;;;53.42;25.77;;;;;;;;;;1026446;28;20023;-76
2022/11/04 01:57:40;;;;;;;56.03;25.80;;;;;;;;;;1025357;28;20031;-76
2022/11/04 01:58:13;;;;;;;75.32;24.00;;;;;;;;;;1023964;28;20085;-76
2022/11/04 01:58:48;;;;;;;53.25;23.35;;;;;;;;;;1029317;28;20086;-76
2022/11/04 01:59:26;;;;;;;44.63;22.38;;;;;;;;;;1031715;28;20045;-78
2022/11/04 01:59:58;;;;;;;47.88;20.25;;;;;;;;;;1031193;28;20522;-77
2022/11/04 02:00:30;;;;;;;48.72;22.35;;;;;;;;;;1030294;28;20390;-76
2022/11/04 02:01:01;;;;;;;60.40;24.00;;;;;;;;;;1034297;28;20109;-76
2022/11/04 02:01:33;;;;;;;55.58;21.67;;;;;;;;;;1031989;28;20468;-76
2022/11/04 02:02:05;;;;;;;43.50;21.88;;;;;;;;;;1031157;28;20030;-77
2022/11/04 02:02:39;;;;;;;45.28;22.05;;;;;;;;;;1028362;28;20025;-77
2022/11/04 02:03:18;;;;;;;45.15;22.05;;;;;;;;;;1025233;28;20057;-76
2022/11/04 02:03:53;;;;;;;49.28;20.35;;;;;;;;;;1023460;28;20031;-76
2022/11/04 02:04:24;;;;;;;53.78;22.48;;;;;;;;;;1026783;28;20082;-76
2022/11/04 02:04:56;;;;;;;44.85;19.98;;;;;;;;;;1028251;28;20052;-76
2022/11/04 02:05:28;;;;;;;47.67;22.55;;;;;;;;;;1030498;28;20066;-77
2022/11/04 02:05:59;;;;;;;59.90;22.50;;;;;;;;;;1026937;28;20502;-74
2022/11/04 02:06:30;;;;;;;62.83;21.27;;;;;;;;;;1021334;28;20550;-75
2022/11/04 02:07:05;;;;;;;52.17;21.77;;;;;;;;;;1019511;29;20538;-76
2022/11/04 02:07:36;;;;;;;52.70;20.38;;;;;;;;;;1023304;28;20951;-77
2022/11/04 02:08:08;;;;;;;46.78;20.80;;;;;;;;;;1027954;28;20023;-78
2022/11/04 02:08:40;;;;;;;53.08;22.10;;;;;;;;;;1028095;28;20046;-77
2022/11/04 02:09:11;;;;;;;44.63;22.65;;;;;;;;;;1027007;28;20121;-76
2022/11/04 02:09:43;;;;;;;44.03;20.83;;;;;;;;;;1031928;28;20493;-76
2022/11/04 02:10:14;;;;;;;42.13;20.50;;;;;;;;;;1031103;28;20553;-76
2022/11/04 02:10:49;;;;;;;44.00;23.10;;;;;;;;;;1031901;28;20070;-77
2022/11/04 02:13:01;;;;;;;39.33;18.93;;;;;;;;;;1032051;28;20044;-75
2022/11/04 02:13:32;;;;;;;43.80;19.88;;;;;;;;;;1028435;28;20269;-76
2022/11/04 02:14:03;;;;;;;44.88;21.33;;;;;;;;;;1026585;28;20026;-76
2022/11/04 02:14:34;;;;;;;43.38;19.20;;;;;;;;;;1027790;28;20027;-78
2022/11/04 02:15:07;;;;;;;41.78;19.27;;;;;;;;;;1023166;29;20027;-77
2022/11/04 02:15:56;;;;;;;46.38;23.13;;;;;;;;;;1019778;29;20020;-77
2022/11/04 02:16:43;;;;;;;55.70;21.27;;;;;;;;;;1017790;29;20066;-75
2022/11/04 02:17:17;;;;;;;44.15;18.75;;;;;;;;;;1024296;28;20038;-75
2022/11/04 02:17:54;;;;;;;39.53;17.75;;;;;;;;;;1027060;28;20041;-77
2022/11/04 02:18:33;;;;;;;45.50;20.55;;;;;;;;;;1020232;29;20023;-77
2022/11/04 02:19:04;;;;;;;37.30;17.35;;;;;;;;;;1022860;28;20588;-78
2022/11/04 02:19:43;;;;;;;39.55;19.70;;;;;;;;;;1021548;28;20041;-76
2022/11/04 02:20:16;;;;;;;32.28;19.05;;;;;;;;;;1022637;28;20103;-77
2022/11/04 02:21:10;;;;;;;50.03;21.40;;;;;;;;;;1030814;28;20108;-76
2022/11/04 02:21:47;;;;;;;53.08;22.05;;;;;;;;;;1026042;28;20251;-77
2022/11/04 02:22:20;;;;;;;42.17;17.60;;;;;;;;;;1029142;28;20601;-79
2022/11/04 02:23:07;;;;;;;48.08;21.05;;;;;;;;;;1026968;28;20034;-76
2022/11/04 02:23:56;;;;;;;45.53;19.27;;;;;;;;;;1024461;28;20152;-76
2022/11/04 02:24:37;;;;;;;51.50;21.83;;;;;;;;;;1023059;28;20031;-75
2022/11/04 02:25:26;;;;;;;53.92;22.42;;;;;;;;;;1021671;28;20035;-78
2022/11/04 02:26:32;;;;;;;46.17;19.77;;;;;;;;;;1023079;28;20019;-77
2022/11/04 02:27:17;;;;;;;40.42;17.48;;;;;;;;;;1017087;29;20488;-77
2022/11/04 02:27:48;;;;;;;44.83;20.85;;;;;;;;;;1016748;29;20094;-76
2022/11/04 02:28:31;;;;;;;51.70;23.05;;;;;;;;;;1014689;29;20130;-76
2022/11/04 02:29:04;;;;;;;45.10;18.88;;;;;;;;;;1014983;29;20036;-75
2022/11/04 02:29:42;;;;;;;44.40;21.27;;;;;;;;;;1017391;28;20036;-76
2022/11/04 02:30:16;;;;;;;37.53;20.27;;;;;;;;;;1025363;28;20399;-76
2022/11/04 02:30:54;;;;;;;58.33;18.80;;;;;;;;;;1023806;28;20069;-77
2022/11/04 02:31:37;;;;;;;45.58;18.23;;;;;;;;;;1029790;28;20027;-76
2022/11/04 02:32:12;;;;;;;42.95;20.27;;;;;;;;;;1027757;28;20015;-76
2022/11/04 02:32:57;;;;;;;39.25;17.75;;;;;;;;;;1030137;28;20505;-76
2022/11/04 02:33:57;;;;;;;40.10;16.42;;;;;;;;;;1028750;28;20034;-77
2022/11/04 02:34:33;;;;;;;39.67;18.48;;;;;;;;;;1015188;29;20072;-76
2022/11/04 02:35:12;;;;;;;56.85;19.85;;;;;;;;;;1024576;28;20035;-80
2022/11/04 02:35:58;;;;;;;46.22;20.48;;;;;;;;;;1017909;29;20024;-77
2022/11/04 02:36:41;;;;;;;47.35;18.77;;;;;;;;;;1021430;29;20035;-76
2022/11/04 02:37:21;;;;;;;42.45;19.27;;;;;;;;;;1026550;28;20023;-78
2022/11/04 02:37:55;;;;;;;43.97;20.10;;;;;;;;;;1023310;28;20073;-78
2022/11/04 02:38:31;;;;;;;48.85;18.70;;;;;;;;;;1019560;29;20446;-78
2022/11/04 02:39:21;;;;;;;49.85;19.50;;;;;;;;;;1016396;29;20044;-78
2022/11/04 02:39:51;;;;;;;45.92;20.42;;;;;;;;;;1022854;28;20030;-77
2022/11/04 02:40:27;;;;;;;42.95;20.33;;;;;;;;;;1025437;28;20078;-77
2022/11/04 02:41:27;;;;;;;41.40;20.40;;;;;;;;;;1025285;28;20305;-76
2022/11/04 02:42:03;;;;;;;39.97;18.05;;;;;;;;;;1028193;28;20355;-75
2022/11/04 02:42:41;;;;;;;43.75;18.48;;;;;;;;;;1026001;28;20085;-80
2022/11/04 02:43:23;;;;;;;37.00;16.35;;;;;;;;;;1025740;28;20613;-75
2022/11/04 02:44:10;;;;;;;55.30;21.92;;;;;;;;;;1030710;28;20429;-76
2022/11/04 02:44:45;;;;;;;43.17;18.45;;;;;;;;;;1028400;28;20037;-76
2022/11/04 02:45:18;;;;;;;46.15;18.25;;;;;;;;;;1028087;28;20027;-77
2022/11/04 02:46:00;;;;;;;33.30;15.90;;;;;;;;;;1020630;29;20460;-76
2022/11/04 02:46:35;;;;;;;48.67;18.80;;;;;;;;;;1023343;28;20101;-76
2022/11/04 02:47:29;;;;;;;35.08;18.48;;;;;;;;;;1026832;28;20598;-77
2022/11/04 02:48:03;;;;;;;44.22;17.30;;;;;;;;;;1027258;28;20029;-76
2022/11/04 02:48:54;;;;;;;43.95;18.40;;;;;;;;;;1027855;28;20034;-76
2022/11/04 02:49:34;;;;;;;38.00;17.98;;;;;;;;;;1022045;28;20158;-76
2022/11/04 02:50:08;;;;;;;47.28;17.20;;;;;;;;;;1022737;28;20742;-76
2022/11/04 02:50:40;;;;;;;40.45;18.38;;;;;;;;;;1021426;28;20031;-77
2022/11/04 02:51:20;;;;;;;42.65;18.77;;;;;;;;;;1021813;28;20075;-76
2022/11/04 02:52:11;;;;;;;40.72;15.73;;;;;;;;;;1023932;28;20460;-75
2022/11/04 02:52:48;;;;;;;51.85;22.00;;;;;;;;;;1029735;28;20043;-76
2022/11/04 02:53:25;;;;;;;51.08;17.50;;;;;;;;;;1031234;28;20529;-79
2022/11/04 02:54:05;;;;;;;54.55;18.95;;;;;;;;;;1030527;28;20030;-75
2022/11/04 02:54:59;;;;;;;44.17;20.33;;;;;;;;;;1031098;28;20034;-76
2022/11/04 02:55:34;;;;;;;32.60;15.82;;;;;;;;;;1015967;28;20036;-76
2022/11/04 02:56:06;;;;;;;43.72;17.45;;;;;;;;;;1027195;28;20109;-78
2022/11/04 02:56:40;;;;;;;50.60;17.02;;;;;;;;;;1031384;28;20030;-74
2022/11/04 02:57:14;;;;;;;39.20;19.27;;;;;;;;;;1026285;28;20026;-76
2022/11/04 02:57:48;;;;;;;48.08;21.25;;;;;;;;;;1026658;28;20070;-77
2022/11/04 02:58:21;;;;;;;52.63;20.15;;;;;;;;;;1025516;28;20027;-75
2022/11/04 02:58:59;;;;;;;38.38;18.40;;;;;;;;;;1025757;28;20031;-76
2022/11/04 02:59:36;;;;;;;39.72;17.27;;;;;;;;;;1029529;28;21138;-75
2022/11/04 03:00:14;;;;;;;32.40;14.73;;;;;;;;;;1023313;28;20022;-76
2022/11/04 03:00:46;;;;;;;45.50;16.25;;;;;;;;;;1019432;28;20093;-75
2022/11/04 03:01:18;;;;;;;44.95;18.98;;;;;;;;;;1022925;28;20019;-77
2022/11/04 03:01:51;;;;;;;51.67;16.70;;;;;;;;;;1024616;28;20820;-74
2022/11/04 03:02:26;;;;;;;46.83;19.10;;;;;;;;;;1018824;29;20058;-75
2022/11/04 03:03:03;;;;;;;48.25;19.25;;;;;;;;;;1017962;28;20601;-76
2022/11/04 03:03:41;;;;;;;46.75;18.45;;;;;;;;;;1020367;29;20562;-76
2022/11/04 03:04:18;;;;;;;36.45;16.73;;;;;;;;;;1025485;28;20024;-77
2022/11/04 03:04:53;;;;;;;42.40;18.13;;;;;;;;;;1028427;28;20124;-78
2022/11/04 03:05:30;;;;;;;43.95;16.77;;;;;;;;;;1031736;28;20448;-78
2022/11/04 03:06:04;;;;;;;36.38;16.48;;;;;;;;;;1029528;28;20034;-77
2022/11/04 03:06:36;;;;;;;38.42;16.42;;;;;;;;;;1029012;28;20587;-76
2022/11/04 03:07:10;;;;;;;38.83;16.45;;;;;;;;;;1027868;28;20034;-76
2022/11/04 03:07:42;;;;;;;45.97;17.67;;;;;;;;;;1022583;28;20766;-75
2022/11/04 03:08:16;;;;;;;32.13;16.65;;;;;;;;;;1021469;28;20035;-75
2022/11/04 03:08:51;;;;;;;37.50;16.38;;;;;;;;;;1020019;29;20495;-76
2022/11/04 03:09:25;;;;;;;36.65;17.17;;;;;;;;;;1022592;29;20376;-74
2022/11/04 03:09:59;;;;;;;56.20;18.17;;;;;;;;;;1022285;29;20605;-76
2022/11/04 03:10:35;;;;;;;33.28;15.48;;;;;;;;;;1017267;29;20024;-75
2022/11/04 03:11:10;;;;;;;33.55;16.23;;;;;;;;;;1020540;28;20023;-78
2022/11/04 03:11:46;;;;;;;34.95;17.38;;;;;;;;;;1023882;28;20583;-76
2022/11/04 03:12:20;;;;;;;33.65;15.23;;;;;;;;;;1027573;28;20022;-76
2022/11/04 03:12:56;;;;;;;29.45;14.13;;;;;;;;;;1029655;28;20053;-77
2022/11/04 03:13:53;;;;;;;38.17;17.98;;;;;;;;;;1028424;28;20501;-77
2022/11/04 03:14:44;;;;;;;26.75;15.18;;;;;;;;;;1025817;28;20039;-74
2022/11/04 03:15:18;;;;;;;33.40;14.82;;;;;;;;;;1026279;28;20081;-76
2022/11/04 03:16:01;;;;;;;36.75;15.02;;;;;;;;;;1027043;28;20102;-76
2022/11/04 03:16:37;;;;;;;28.70;15.85;;;;;;;;;;1023574;29;20054;-77
2022/11/04 03:17:10;;;;;;;36.58;15.77;;;;;;;;;;1024953;28;20546;-76
2022/11/04 03:17:46;;;;;;;30.15;13.93;;;;;;;;;;1026700;28;20160;-76
2022/11/04 03:18:37;;;;;;;44.38;15.68;;;;;;;;;;1029074;28;20055;-78
2022/11/04 03:19:08;;;;;;;30.95;14.20;;;;;;;;;;1015137;28;20674;-75
2022/11/04 03:19:46;;;;;;;27.92;15.43;;;;;;;;;;1029889;28;20108;-76
2022/11/04 03:20:24;;;;;;;31.73;13.80;;;;;;;;;;1032443;28;20077;-78
2022/11/04 03:20:57;;;;;;;34.58;15.02;;;;;;;;;;1031278;28;20045;-78
2022/11/04 03:21:32;;;;;;;32.03;14.30;;;;;;;;;;1023869;28;20026;-76
2022/11/04 03:22:05;;;;;;;30.70;15.02;;;;;;;;;;1025022;28;20635;-77
2022/11/04 03:22:36;;;;;;;39.65;16.95;;;;;;;;;;1023650;28;20113;-77
2022/11/04 03:23:09;;;;;;;31.67;15.80;;;;;;;;;;1019050;29;20027;-77
2022/11/04 03:23:40;;;;;;;31.05;15.10;;;;;;;;;;1018015;29;20350;-76
2022/11/04 03:24:12;;;;;;;44.67;17.20;;;;;;;;;;1023148;28;20224;-78
2022/11/04 03:24:45;;;;;;;35.63;15.20;;;;;;;;;;1024270;28;20110;-78
2022/11/04 03:25:16;;;;;;;32.78;15.68;;;;;;;;;;1022780;28;20019;-76
2022/11/04 03:25:51;;;;;;;41.95;15.35;;;;;;;;;;1021694;28;20176;-76
2022/11/04 03:26:29;;;;;;;37.10;15.70;;;;;;;;;;1020873;28;20022;-77
2022/11/04 03:27:10;;;;;;;50.13;18.75;;;;;;;;;;1018674;29;20546;-75
2022/11/04 03:27:41;;;;;;;35.72;17.73;;;;;;;;;;1016149;29;20113;-75
2022/11/04 03:28:35;;;;;;;37.85;18.25;;;;;;;;;;1021949;28;20205;-76
2022/11/04 03:29:08;;;;;;;35.67;16.40;;;;;;;;;;1016227;28;20087;-77
2022/11/04 03:30:02;;;;;;;43.75;17.25;;;;;;;;;;1020313;28;20103;-77
2022/11/04 03:30:38;;;;;;;32.85;14.63;;;;;;;;;;1022253;28;20036;-77
2022/11/04 03:31:14;;;;;;;49.28;20.42;;;;;;;;;;1021456;28;20099;-78
2022/11/04 03:31:47;;;;;;;31.85;15.10;;;;;;;;;;1022432;29;20035;-77
2022/11/04 03:32:24;;;;;;;35.85;17.33;;;;;;;;;;1022312;29;20085;-77
2022/11/04 03:33:05;;;;;;;43.90;16.88;;;;;;;;;;1023813;28;20085;-76
2022/11/04 03:33:47;;;;;;;47.63;17.60;;;;;;;;;;1027704;28;20031;-76
2022/11/04 03:34:18;;;;;;;34.63;14.32;;;;;;;;;;1026552;28;20026;-77
2022/11/04 03:34:49;;;;;;;37.78;16.20;;;;;;;;;;1023634;28;20035;-76
2022/11/04 03:35:20;;;;;;;43.95;17.20;;;;;;;;;;1024132;28;20025;-75
2022/11/04 03:35:51;;;;;;;42.75;17.65;;;;;;;;;;1022576;28;20027;-75
2022/11/04 03:36:23;;;;;;;39.50;18.05;;;;;;;;;;1024033;28;20602;-74
2022/11/04 03:36:54;;;;;;;43.95;17.40;;;;;;;;;;1029133;28;20133;-77
2022/11/04 03:37:25;;;;;;;42.30;16.90;;;;;;;;;;1025628;28;20384;-77
2022/11/04 03:37:56;;;;;;;33.22;14.20;;;;;;;;;;1026779;28;20062;-76
2022/11/04 03:38:27;;;;;;;65.03;18.70;;;;;;;;;;1025265;28;20038;-76